Time;durP1;ratioP1;P1;durP2;ratioP2;P2;SDS_P1;SDS_P2;PMS_P1;PMS_P2;Temp;Humidity;BMP_temperature;BMP_pressure;BME280_temperature;BME280_humidity;BME280_pressure;Samples;Min_cycle;Max_cycle;Signal;HPM_P1;HPM_P2
2022/08/16 00:00:53;;;;;;;15.35;11.65;;;;;;;18.56;81.13;100550.13;5095509;28;20024;-79
2022/08/16 00:03:18;;;;;;;21.63;12.70;;;;;;;18.55;81.01;100550.31;5095259;28;20028;-79
2022/08/16 00:05:44;;;;;;;15.45;12.32;;;;;;;18.50;81.32;100549.97;5095594;28;20027;-80
2022/08/16 00:08:10;;;;;;;16.45;13.10;;;;;;;18.60;81.61;100580.25;5077196;28;20031;-78
2022/08/16 00:10:36;;;;;;;15.73;13.38;;;;;;;18.41;81.83;100562.16;5095540;28;20024;-79
2022/08/16 00:13:05;;;;;;;16.40;12.63;;;;;;;18.35;81.65;100552.31;5095338;28;20019;-78
2022/08/16 00:15:35;;;;;;;17.17;12.75;;;;;;;18.46;82.38;100578.19;5095466;28;20028;-80
2022/08/16 00:18:00;;;;;;;25.80;14.43;;;;;;;18.40;82.42;100573.59;5095278;28;20039;-79
2022/08/16 00:20:26;;;;;;;17.35;13.95;;;;;;;18.38;82.38;100575.50;5095073;28;20399;-80
2022/08/16 00:22:52;;;;;;;17.88;14.75;;;;;;;18.30;82.90;100571.06;5095070;28;20380;-80
2022/08/16 00:25:20;;;;;;;18.42;14.90;;;;;;;18.23;82.91;100564.00;5095081;28;20495;-79
2022/08/16 00:27:45;;;;;;;20.80;13.98;;;;;;;18.29;82.44;100579.06;5095136;28;20052;-80
2022/08/16 00:30:13;;;;;;;20.77;15.88;;;;;;;18.24;83.22;100586.53;5094908;28;20146;-79
2022/08/16 00:32:41;;;;;;;21.15;16.73;;;;;;;18.21;83.17;100590.28;5093664;28;20039;-79
2022/08/16 00:35:09;;;;;;;21.50;15.82;;;;;;;18.17;83.71;100590.72;5094572;28;20491;-79
2022/08/16 00:37:37;;;;;;;19.60;15.68;;;;;;;18.03;83.73;100566.78;5094697;28;20072;-80
2022/08/16 00:40:05;;;;;;;20.80;15.77;;;;;;;18.10;83.53;100587.91;5094977;28;20130;-80
2022/08/16 00:42:31;;;;;;;18.63;15.77;;;;;;;18.05;83.51;100574.47;5094755;28;20024;-80
2022/08/16 00:45:01;;;;;;;21.75;16.23;;;;;;;18.11;83.64;100594.78;5094185;28;20423;-79
2022/08/16 00:47:26;;;;;;;20.83;15.53;;;;;;;18.00;84.17;100585.38;5094458;28;20380;-80
2022/08/16 00:49:53;;;;;;;17.25;14.68;;;;;;;18.01;83.81;100602.69;5094654;28;20278;-79
2022/08/16 00:52:18;;;;;;;17.98;14.82;;;;;;;17.66;84.42;100545.19;5094513;28;20019;-78
2022/08/16 00:54:44;;;;;;;18.27;15.15;;;;;;;17.93;84.33;100597.41;5094717;28;20085;-79
2022/08/16 00:57:11;;;;;;;18.83;14.63;;;;;;;17.86;84.47;100598.94;5094546;28;20455;-79
2022/08/16 00:59:38;;;;;;;16.90;14.70;;;;;;;17.86;84.76;100598.13;5094478;28;20083;-80
2022/08/16 01:02:07;;;;;;;21.95;17.23;;;;;;;17.81;85.18;100605.59;5094222;28;20110;-79
2022/08/16 01:04:34;;;;;;;20.48;16.17;;;;;;;17.77;84.96;100602.44;5094206;28;20028;-79
2022/08/16 01:07:03;;;;;;;22.90;17.85;;;;;;;17.72;85.38;100599.47;5094200;28;20020;-79
2022/08/16 01:09:35;;;;;;;21.50;16.88;;;;;;;17.54;85.23;100575.94;5094123;28;20024;-79
2022/08/16 01:12:03;;;;;;;19.20;16.25;;;;;;;17.62;85.14;100596.09;5094042;28;20051;-79
2022/08/16 01:14:36;;;;;;;20.33;16.25;;;;;;;17.57;84.85;100593.06;5094105;28;20093;-79
2022/08/16 01:17:03;;;;;;;22.70;17.35;;;;;;;17.36;85.57;100560.22;5093996;28;20016;-79
2022/08/16 01:19:45;;;;;;;20.17;17.30;;;;;;;17.57;85.63;100598.31;5094099;28;20035;-79
2022/08/16 01:22:42;;;;;;;21.70;17.58;;;;;;;17.53;85.58;100591.75;5093796;28;20475;-80
2022/08/16 01:25:13;;;;;;;23.00;18.38;;;;;;;17.37;86.10;100581.94;5093824;28;20032;-79
2022/08/16 01:27:44;;;;;;;24.33;19.08;;;;;;;17.45;86.48;100606.34;5093914;28;20027;-80
2022/08/16 01:30:11;;;;;;;;;;;;;;;17.52;83.89;100605.78;5094160;28;20073;-79
2022/08/16 01:32:41;;;;;;;24.52;18.48;;;;;;;17.35;85.94;100591.72;5093751;28;19920;-78
2022/08/16 01:35:34;;;;;;;25.38;17.83;;;;;;;17.35;85.94;100594.31;5093754;28;20024;-81
2022/08/16 01:38:14;;;;;;;22.60;17.70;;;;;;;17.35;86.57;100599.53;5093181;28;20471;-79
2022/08/16 01:40:39;;;;;;;23.23;17.40;;;;;;;17.04;86.83;100565.09;5093734;28;20069;-79
2022/08/16 01:43:07;;;;;;;21.75;17.65;;;;;;;17.26;86.77;100590.78;5075241;28;20044;-79
2022/08/16 01:45:33;;;;;;;23.38;17.50;;;;;;;17.23;86.92;100598.09;5075076;28;20449;-79
2022/08/16 01:47:58;;;;;;;25.35;18.10;;;;;;;17.20;87.19;100593.97;5093332;28;20028;-79
2022/08/16 01:50:24;;;;;;;25.15;19.23;;;;;;;17.19;87.14;100600.97;5074939;28;20061;-78
2022/08/16 01:52:49;;;;;;;23.38;19.10;;;;;;;17.17;87.32;100594.25;5093012;28;20020;-78
2022/08/16 01:55:22;;;;;;;22.52;19.63;;;;;;;16.99;87.42;100578.56;5074562;28;20027;-79
2022/08/16 01:57:48;;;;;;;25.20;18.55;;;;;;;17.06;87.48;100590.06;5093303;28;20035;-79
2022/08/16 02:00:14;;;;;;;23.92;18.08;;;;;;;17.09;87.68;100591.56;5092979;28;20020;-79
2022/08/16 02:02:41;;;;;;;22.55;17.83;;;;;;;17.00;87.68;100603.66;5093133;28;20028;-79
2022/08/16 02:05:06;;;;;;;24.02;19.00;;;;;;;16.89;88.00;100582.97;5093061;28;20023;-79
2022/08/16 02:07:32;;;;;;;23.38;19.00;;;;;;;17.03;88.01;100594.75;5092954;28;20099;-79
2022/08/16 02:09:57;;;;;;;24.95;20.83;;;;;;;16.86;88.49;100573.66;5074215;28;20040;-79
2022/08/16 02:12:23;;;;;;;25.75;21.20;;;;;;;16.98;88.40;100594.34;5093028;28;20059;-79
2022/08/16 02:14:49;;;;;;;27.35;22.65;;;;;;;16.83;88.61;100571.34;5092985;28;20556;-79
2022/08/16 02:17:15;;;;;;;29.10;21.75;;;;;;;16.89;88.85;100586.41;5093082;28;20104;-79
2022/08/16 02:19:44;;;;;;;26.98;21.98;;;;;;;16.91;88.84;100596.69;5092992;28;20110;-79
2022/08/16 02:22:13;;;;;;;25.88;22.25;;;;;;;16.77;89.19;100576.31;5092529;28;20059;-79
2022/08/16 02:24:40;;;;;;;26.75;21.27;;;;;;;16.87;89.54;100598.78;5074736;28;20024;-79
2022/08/16 02:27:05;;;;;;;30.55;22.15;;;;;;;16.87;89.57;100590.97;5092931;28;20430;-79
2022/08/16 02:29:31;;;;;;;27.98;22.67;;;;;;;16.88;89.60;100590.00;5092701;28;20016;-79
2022/08/16 02:31:58;;;;;;;25.50;20.58;;;;;;;16.86;89.76;100593.72;5092563;28;20491;-79
2022/08/16 02:34:24;;;;;;;25.65;20.73;;;;;;;16.78;90.17;100585.78;5092776;28;20146;-79
2022/08/16 02:36:49;;;;;;;26.73;20.92;;;;;;;16.74;89.69;100574.00;5092567;28;20449;-79
2022/08/16 02:39:15;;;;;;;28.55;21.50;;;;;;;16.77;90.19;100594.56;5092742;28;20035;-78
2022/08/16 02:41:43;;;;;;;27.08;22.48;;;;;;;16.76;90.67;100591.13;5092479;28;20067;-79
2022/08/16 02:44:10;;;;;;;29.75;23.40;;;;;;;16.74;90.65;100597.47;5092453;28;20058;-79
2022/08/16 02:46:36;;;;;;;29.70;22.55;;;;;;;16.74;90.87;100598.28;5092671;28;20035;-79
2022/08/16 02:49:03;;;;;;;29.48;22.83;;;;;;;16.71;91.25;100597.72;5092619;28;20028;-79
2022/08/16 02:51:28;;;;;;;26.13;22.08;;;;;;;16.73;90.72;100595.81;5092583;28;20031;-79
2022/08/16 02:53:54;;;;;;;25.13;21.38;;;;;;;16.66;90.80;100587.72;5092433;28;20379;-77
2022/08/16 02:56:20;;;;;;;27.17;21.42;;;;;;;16.67;91.50;100598.97;5092554;28;20443;-78
2022/08/16 02:58:48;;;;;;;25.15;20.85;;;;;;;16.56;91.22;100571.28;5092483;28;20047;-79
2022/08/16 03:01:17;;;;;;;27.55;19.73;;;;;;;16.63;91.47;100588.00;5092400;28;20024;-79
2022/08/16 03:03:42;;;;;;;28.48;21.52;;;;;;;16.62;91.78;100589.78;5091141;28;20115;-79
2022/08/16 03:06:08;;;;;;;28.58;21.98;;;;;;;16.46;92.05;100565.25;5092230;28;20104;-79
2022/08/16 03:08:33;;;;;;;26.85;21.42;;;;;;;16.59;91.51;100581.41;5096127;28;20024;-79
2022/08/16 03:10:59;;;;;;;27.30;21.75;;;;;;;16.58;92.04;100585.81;5096147;28;20031;-79
2022/08/16 03:13:24;;;;;;;30.58;22.70;;;;;;;16.47;91.95;100566.91;5096521;28;20039;-78
2022/08/16 03:15:49;;;;;;;24.58;20.50;;;;;;;16.57;91.98;100584.16;5096314;28;20073;-79
2022/08/16 03:18:15;;;;;;;27.27;21.27;;;;;;;16.58;91.90;100577.16;5096284;28;20024;-79
2022/08/16 03:20:40;;;;;;;25.75;20.48;;;;;;;16.40;92.05;100552.78;5096267;28;20032;-79
2022/08/16 03:23:06;;;;;;;26.92;20.95;;;;;;;16.53;91.87;100580.19;5095995;28;20107;-79
2022/08/16 03:25:33;;;;;;;25.20;21.08;;;;;;;16.22;92.15;100535.28;5096065;28;20505;-79
2022/08/16 03:27:59;;;;;;;26.17;21.15;;;;;;;16.43;92.03;100583.78;5096332;28;20024;-78
2022/08/16 03:30:27;;;;;;;30.40;22.05;;;;;;;16.40;92.53;100574.44;5095893;28;20051;-79
2022/08/16 03:32:53;;;;;;;29.88;23.52;;;;;;;16.25;92.82;100555.03;5096106;28;20024;-78
2022/08/16 03:35:21;;;;;;;30.90;23.13;;;;;;;16.37;93.10;100566.91;5095908;28;20274;-79
2022/08/16 03:37:47;;;;;;;31.55;23.33;;;;;;;16.44;92.94;100580.22;5095835;28;20024;-78
2022/08/16 03:40:14;;;;;;;29.85;21.70;;;;;;;16.20;92.82;100555.41;5095887;28;20073;-78
2022/08/16 03:42:39;;;;;;;33.05;24.20;;;;;;;15.75;93.14;100479.69;5095751;28;20491;-78
2022/08/16 03:45:06;;;;;;;32.45;23.38;;;;;;;16.31;93.63;100572.69;5077654;28;20032;-78
2022/08/16 03:47:32;;;;;;;31.92;23.48;;;;;;;16.44;93.58;100590.66;5095836;28;20387;-78
2022/08/16 03:49:57;;;;;;;32.83;23.92;;;;;;;16.35;93.45;100576.66;5095694;28;20035;-78
2022/08/16 03:52:23;;;;;;;32.53;23.77;;;;;;;16.38;93.42;100583.38;5095348;28;20482;-78
2022/08/16 03:54:49;;;;;;;32.05;24.33;;;;;;;16.45;93.84;100605.31;5095692;28;20032;-77
2022/08/16 03:57:15;;;;;;;28.70;23.75;;;;;;;16.36;93.78;100596.56;5095761;28;20384;-78
2022/08/16 03:59:40;;;;;;;29.02;23.38;;;;;;;16.19;93.78;100568.59;5077449;28;20150;-78
2022/08/16 04:02:05;;;;;;;34.47;24.83;;;;;;;16.28;93.80;100584.22;5095454;28;20400;-78
2022/08/16 04:04:32;;;;;;;31.45;24.48;;;;;;;16.42;94.13;100600.38;5095506;28;20085;-78
2022/08/16 04:06:57;;;;;;;32.38;24.50;;;;;;;16.25;94.20;100571.47;5095287;28;20133;-77
2022/08/16 04:09:23;;;;;;;32.58;23.50;;;;;;;16.55;93.75;100613.94;5095077;28;20024;-78
2022/08/16 04:11:48;;;;;;;30.63;24.80;;;;;;;16.57;93.60;100615.44;5095521;28;20051;-78
2022/08/16 04:14:13;;;;;;;32.15;24.60;;;;;;;16.54;93.44;100617.50;5095509;28;20055;-78
2022/08/16 04:16:39;;;;;;;33.20;24.55;;;;;;;16.45;93.53;100608.75;5095165;28;20341;-77
2022/08/16 04:19:04;;;;;;;33.78;23.75;;;;;;;16.34;93.57;100591.47;5094416;28;20031;-78
2022/08/16 04:21:34;;;;;;;31.95;24.40;;;;;;;16.33;93.68;100605.47;5095072;28;20024;-78
2022/08/16 04:24:00;;;;;;;31.40;24.05;;;;;;;16.34;93.67;100598.47;5094792;28;20028;-78
2022/08/16 04:26:26;;;;;;;32.38;24.08;;;;;;;16.50;93.63;100621.34;5095152;28;20035;-78
2022/08/16 04:28:51;;;;;;;32.10;25.17;;;;;;;16.33;93.88;100602.06;5076160;28;20036;-78
2022/08/16 04:31:16;;;;;;;31.52;24.33;;;;;;;16.43;93.74;100628.09;5094997;28;20044;-78
2022/08/16 04:33:41;;;;;;;29.52;23.35;;;;;;;16.39;93.79;100629.31;5094812;28;20028;-78
2022/08/16 04:36:08;;;;;;;30.00;23.83;;;;;;;16.36;93.77;100625.22;5094506;28;20032;-78
2022/08/16 04:38:34;;;;;;;33.30;24.05;;;;;;;16.29;93.56;100619.72;5094674;28;20157;-78
2022/08/16 04:40:59;;;;;;;31.95;23.88;;;;;;;16.32;93.56;100622.06;5094596;28;20481;-79
2022/08/16 04:43:24;;;;;;;33.17;23.45;;;;;;;16.34;93.59;100616.72;5094602;28;20535;-78
2022/08/16 04:45:50;;;;;;;33.47;24.40;;;;;;;16.18;93.49;100595.59;5094769;28;20028;-78
2022/08/16 04:48:16;;;;;;;31.75;23.67;;;;;;;16.19;93.39;100602.47;5094548;28;20031;-77
2022/08/16 04:50:41;;;;;;;32.63;24.90;;;;;;;16.34;93.43;100627.16;5094791;28;20386;-78
2022/08/16 04:53:06;;;;;;;35.53;24.08;;;;;;;16.37;93.43;100631.25;5094526;28;20487;-78
2022/08/16 04:55:32;;;;;;;32.00;24.08;;;;;;;16.18;93.22;100603.41;5094280;28;20086;-78
2022/08/16 04:57:58;;;;;;;31.75;24.38;;;;;;;16.26;93.43;100611.38;5094457;28;20581;-79
2022/08/16 05:00:30;;;;;;;27.48;20.95;;;;;;;16.44;93.39;100622.75;5094440;28;20036;-81
2022/08/16 05:02:55;;;;;;;29.65;22.20;;;;;;;16.48;93.04;100599.81;5094200;28;20028;-85
2022/08/16 05:05:22;;;;;;;26.73;20.40;;;;;;;16.89;92.98;100611.69;5094620;28;20429;-88
2022/08/16 05:07:47;;;;;;;28.05;21.10;;;;;;;17.12;91.33;100635.63;5093955;28;20024;-87
2022/08/16 05:10:13;;;;;;;31.23;24.35;;;;;;;17.09;91.08;100639.34;5093854;28;20498;-87
2022/08/16 05:12:39;;;;;;;30.23;24.25;;;;;;;17.08;91.21;100616.81;5094169;28;20460;-85
2022/08/16 05:15:06;;;;;;;28.92;22.92;;;;;;;17.32;90.64;100618.94;5094252;28;20040;-84
2022/08/16 05:17:31;;;;;;;33.80;27.13;;;;;;;17.26;89.67;100614.28;5075924;28;20016;-86
2022/08/16 05:19:57;;;;;;;31.27;25.35;;;;;;;17.51;89.79;100649.34;5093145;28;20069;-84
2022/08/16 05:22:23;;;;;;;40.10;29.15;;;;;;;17.36;89.59;100632.50;5074871;28;20119;-87
2022/08/16 05:25:02;;;;;;;32.05;25.60;;;;;;;17.61;89.62;100670.16;5093904;28;20120;-83
2022/08/16 05:27:28;;;;;;;34.35;26.90;;;;;;;17.22;89.00;100591.25;5094041;28;20024;-82
2022/08/16 05:29:56;;;;;;;32.67;27.10;;;;;;;17.25;88.67;100544.78;5093685;28;20531;-83
2022/08/16 05:32:22;;;;;;;30.25;23.30;;;;;;;17.68;87.65;100580.63;5093907;28;20043;-81
2022/08/16 05:34:47;;;;;;;31.63;24.60;;;;;;;18.32;86.53;100657.19;5075323;28;20048;-82
2022/08/16 05:37:12;;;;;;;35.42;26.55;;;;;;;18.42;86.19;100659.72;5093688;28;20028;-82
2022/08/16 05:39:38;;;;;;;26.77;20.85;;;;;;;18.68;84.83;100654.53;5093477;28;20067;-81
2022/08/16 05:42:03;;;;;;;33.15;24.38;;;;;;;18.57;84.13;100635.47;5093362;28;20102;-82
2022/08/16 05:44:28;;;;;;;28.23;21.60;;;;;;;18.84;83.18;100641.56;5093301;28;20024;-81
2022/08/16 05:46:56;;;;;;;28.63;22.63;;;;;;;19.05;82.67;100669.97;5075393;28;20031;-81
2022/08/16 05:49:23;;;;;;;31.42;23.67;;;;;;;19.06;82.04;100641.03;5093622;28;20043;-82
2022/08/16 05:51:51;;;;;;;26.83;22.25;;;;;;;19.39;80.96;100670.00;5093524;28;20021;-85
2022/08/16 05:54:41;;;;;;;27.75;22.55;;;;;;;19.60;79.40;100618.03;5093290;28;20028;-85
2022/08/16 05:57:24;;;;;;;37.13;26.00;;;;;;;20.34;75.12;100567.28;5093003;28;20353;-83
2022/08/16 05:59:50;;;;;;;28.05;19.88;;;;;;;21.84;69.64;100608.41;5093188;28;20032;-86
2022/08/16 06:02:16;;;;;;;27.15;20.30;;;;;;;23.21;65.60;100677.59;5093180;28;20031;-87
2022/08/16 06:04:50;;;;;;;23.10;18.88;;;;;;;23.56;64.14;100613.56;5084853;28;20024;-84
2022/08/16 06:07:16;;;;;;;26.48;21.77;;;;;;;23.94;59.32;100566.69;5073593;28;20024;-88
2022/08/16 06:09:46;;;;;;;29.25;22.63;;;;;;;24.94;57.70;100665.91;5071602;28;20127;-88
2022/08/16 06:12:14;;;;;;;20.55;16.13;;;;;;;25.65;55.62;100677.03;5072398;28;20169;-86
2022/08/16 06:14:40;;;;;;;19.25;15.32;;;;;;;26.06;54.05;100664.78;5072608;28;20027;-83
2022/08/16 06:17:06;;;;;;;26.80;21.27;;;;;;;26.12;53.61;100682.47;5072664;28;20025;-85
2022/08/16 06:19:31;;;;;;;21.02;17.40;;;;;;;26.36;52.38;100642.19;5072519;28;20440;-88
2022/08/16 06:21:56;;;;;;;19.75;17.00;;;;;;;26.63;51.06;100656.22;5072494;28;20024;-84
2022/08/16 06:24:22;;;;;;;20.27;16.52;;;;;;;27.25;49.93;100689.34;5071478;28;20017;-85
2022/08/16 06:26:47;;;;;;;21.45;18.20;;;;;;;27.68;49.08;100684.28;5070799;28;20045;-87
2022/08/16 06:29:12;;;;;;;24.60;19.92;;;;;;;27.73;48.39;100686.31;5071412;28;20035;-81
2022/08/16 06:31:38;;;;;;;23.50;17.95;;;;;;;28.06;46.84;100670.19;5060254;28;20044;-85
2022/08/16 06:34:03;;;;;;;18.55;14.85;;;;;;;28.40;46.73;100686.69;5072168;28;20028;-83
2022/08/16 06:36:29;;;;;;;22.15;18.23;;;;;;;27.63;47.13;100614.28;5054311;28;20036;-83
2022/08/16 06:38:54;;;;;;;23.42;19.40;;;;;;;28.17;46.53;100685.41;5072799;28;20024;-88
2022/08/16 06:41:19;;;;;;;21.60;16.02;;;;;;;28.69;46.16;100691.31;5071773;28;20472;-86
2022/08/16 06:43:46;;;;;;;18.58;15.05;;;;;;;28.90;44.65;100681.34;5072225;28;20028;-87
2022/08/16 06:46:36;;;;;;;23.60;18.52;;;;;;;28.75;46.44;100694.97;5072336;28;20077;-89
2022/08/16 06:49:12;;;;;;;20.65;18.42;;;;;;;28.57;46.60;100685.13;5084417;22;20048;-83
2022/08/16 06:51:39;;;;;;;22.83;18.42;;;;;;;28.49;45.66;100677.41;5092547;28;20041;-84
2022/08/16 06:54:12;;;;;;;21.58;18.00;;;;;;;28.42;46.22;100642.16;5092412;28;20499;-84
2022/08/16 06:56:38;;;;;;;23.98;19.77;;;;;;;28.65;45.37;100692.00;5092317;28;20062;-84
2022/08/16 06:59:03;;;;;;;22.90;19.73;;;;;;;28.47;44.97;100680.28;5074235;28;20028;-83
2022/08/16 07:01:28;;;;;;;20.13;18.00;;;;;;;28.90;45.03;100694.63;5092290;28;20024;-85
2022/08/16 07:03:54;;;;;;;18.08;15.98;;;;;;;29.35;44.32;100695.16;5092415;28;20239;-75
2022/08/16 07:06:21;;;;;;;21.63;19.13;;;;;;;29.42;43.40;100685.25;5092589;28;20053;-76
2022/08/16 07:08:47;;;;;;;21.00;18.13;;;;;;;29.59;43.39;100706.75;5092166;28;20114;-77
2022/08/16 07:11:15;;;;;;;21.35;18.88;;;;;;;29.49;43.15;100682.53;5091932;28;20060;-74
2022/08/16 07:13:40;;;;;;;24.30;19.55;;;;;;;29.74;43.21;100695.72;5092413;28;20020;-77
2022/08/16 07:16:13;;;;;;;22.77;20.38;;;;;;;29.73;42.30;100704.75;5092052;28;20030;-80
2022/08/16 07:18:39;;;;;;;23.20;20.23;;;;;;;29.67;42.47;100707.25;5092177;28;20085;-77
2022/08/16 07:21:05;;;;;;;23.25;19.83;;;;;;;29.37;42.53;100682.44;5092405;28;20375;-80
2022/08/16 07:23:30;;;;;;;23.67;19.42;;;;;;;28.32;45.55;100706.38;5092109;28;20031;-79
2022/08/16 07:25:56;;;;;;;24.60;20.88;;;;;;;26.79;48.59;100692.88;5072497;28;20036;-76
2022/08/16 07:28:21;;;;;;;26.73;21.23;;;;;;;25.80;52.05;100703.38;5071765;28;20032;-79
2022/08/16 07:30:47;;;;;;;26.50;21.15;;;;;;;25.04;54.85;100697.31;5071689;28;20028;-79
2022/08/16 07:33:14;;;;;;;27.33;22.90;;;;;;;24.41;56.64;100697.22;5053967;28;20395;-80
2022/08/16 07:35:40;;;;;;;22.27;19.40;;;;;;;24.14;57.87;100713.78;5071578;28;20480;-80
2022/08/16 07:38:06;;;;;;;26.85;23.30;;;;;;;23.63;59.29;100708.56;5071876;28;20077;-76
2022/08/16 07:40:34;;;;;;;27.95;23.70;;;;;;;23.43;60.74;100732.00;5071927;28;20096;-76
2022/08/16 07:43:00;;;;;;;27.17;22.60;;;;;;;23.18;61.17;100713.81;5071246;28;20028;-75
2022/08/16 07:45:26;;;;;;;26.63;22.52;;;;;;;23.13;62.69;100718.84;5053124;28;20055;-79
2022/08/16 07:47:51;;;;;;;24.98;20.55;;;;;;;23.23;62.35;100730.91;5071645;28;20024;-79
2022/08/16 07:50:16;;;;;;;21.23;18.35;;;;;;;23.27;61.70;100735.63;5056642;28;20041;-78
2022/08/16 07:52:43;;;;;;;25.52;20.10;;;;;;;23.16;62.33;100721.09;5051700;28;20024;-79
2022/08/16 07:55:12;;;;;;;25.63;21.80;;;;;;;23.11;62.10;100712.94;5054220;28;20028;-79
2022/08/16 07:57:38;;;;;;;25.05;20.02;;;;;;;23.18;62.10;100721.72;5055117;28;20036;-79
2022/08/16 08:00:04;;;;;;;26.33;20.38;;;;;;;23.29;62.12;100735.44;5055209;28;20017;-77
2022/08/16 08:02:29;;;;;;;27.60;20.80;;;;;;;23.26;62.19;100723.47;5054953;28;20040;-79
2022/08/16 08:04:55;;;;;;;30.38;20.88;;;;;;;23.27;61.71;100734.81;5055159;28;20024;-77
2022/08/16 08:07:21;;;;;;;23.30;19.27;;;;;;;23.08;62.31;100709.81;5055112;28;20468;-79
2022/08/16 08:09:46;;;;;;;27.30;21.55;;;;;;;23.22;62.85;100726.66;5055064;28;20052;-78
2022/08/16 08:12:12;;;;;;;25.95;22.02;;;;;;;23.10;62.02;100711.28;5054839;28;20064;-78
2022/08/16 08:14:37;;;;;;;29.63;20.77;;;;;;;22.99;62.33;100692.47;5058357;28;20035;-76
2022/08/16 08:17:06;;;;;;;25.88;21.30;;;;;;;23.34;61.71;100744.47;5064548;28;20027;-78
2022/08/16 08:19:33;;;;;;;23.10;19.45;;;;;;;23.28;61.58;100725.91;5065185;28;20070;-77
2022/08/16 08:21:59;;;;;;;21.70;19.13;;;;;;;23.32;61.87;100727.19;5065296;28;20028;-77
2022/08/16 08:24:25;;;;;;;17.23;14.65;;;;;;;23.37;61.65;100727.47;5070108;28;20028;-78
2022/08/16 08:26:50;;;;;;;24.90;18.58;;;;;;;23.46;60.29;100734.28;5069700;28;20041;-79
2022/08/16 08:29:19;;;;;;;21.27;18.67;;;;;;;23.54;59.86;100747.34;5064911;28;20025;-78
2022/08/16 08:31:44;;;;;;;23.30;18.25;;;;;;;23.61;60.92;100755.41;5065476;28;20051;-78
2022/08/16 08:34:09;;;;;;;20.77;16.50;;;;;;;23.61;60.81;100743.03;5064301;28;20473;-78
2022/08/16 08:36:35;;;;;;;19.88;17.67;;;;;;;23.58;60.16;100743.34;5063419;28;20091;-78
2022/08/16 08:39:04;;;;;;;20.73;16.83;;;;;;;23.50;60.69;100732.06;5065315;28;20012;-76
2022/08/16 08:41:29;;;;;;;21.85;16.30;;;;;;;23.53;60.68;100718.56;5051945;28;20123;-78
2022/08/16 08:43:55;;;;;;;23.63;16.85;;;;;;;23.82;60.38;100747.53;5064556;28;20032;-78
2022/08/16 08:46:24;;;;;;;20.92;16.08;;;;;;;23.94;59.29;100743.41;5062714;28;20025;-77
2022/08/16 08:48:51;;;;;;;17.33;14.65;;;;;;;24.18;59.88;100750.16;5070790;28;20020;-80
2022/08/16 08:51:17;;;;;;;18.80;16.15;;;;;;;24.18;57.98;100758.06;5094782;28;20028;-78
2022/08/16 08:53:44;;;;;;;26.95;16.42;;;;;;;24.24;57.89;100759.16;5094550;28;20031;-80
2022/08/16 08:56:09;;;;;;;21.75;14.60;;;;;;;24.39;57.91;100759.16;5094468;28;20034;-81
2022/08/16 08:58:36;;;;;;;16.73;13.02;;;;;;;24.44;56.90;100749.63;5094351;28;20020;-81
2022/08/16 09:01:03;;;;;;;16.42;14.70;;;;;;;24.61;55.61;100755.47;5094135;28;20028;-81
2022/08/16 09:03:29;;;;;;;17.75;14.07;;;;;;;24.66;56.63;100758.34;5076034;28;20439;-79
2022/08/16 09:05:54;;;;;;;19.08;13.98;;;;;;;24.48;57.57;100729.78;5094153;28;20032;-79
2022/08/16 09:08:19;;;;;;;18.08;13.73;;;;;;;24.78;56.19;100759.50;5094197;28;20016;-81
2022/08/16 09:10:45;;;;;;;16.63;13.15;;;;;;;24.89;55.84;100758.97;5076417;28;20066;-81
2022/08/16 09:13:10;;;;;;;16.60;14.32;;;;;;;24.95;54.72;100748.63;5093923;28;20383;-82
2022/08/16 09:15:47;;;;;;;14.40;11.93;;;;;;;25.09;56.24;100758.31;5075937;28;20456;-83
2022/08/16 09:18:23;;;;;;;13.73;11.88;;;;;;;24.80;55.21;100709.13;5075082;28;20065;-82
2022/08/16 09:20:59;;;;;;;19.55;13.43;;;;;;;25.12;53.68;100768.50;5094009;28;20107;-81
2022/08/16 09:23:25;;;;;;;15.70;11.05;;;;;;;24.60;53.85;100648.25;5093921;28;20680;-81
2022/08/16 09:25:51;;;;;;;17.13;11.63;;;;;;;25.41;52.92;100773.56;5089180;22;20515;-78
2022/08/16 09:28:16;;;;;;;15.73;12.27;;;;;;;25.33;52.59;100775.53;5055510;28;20021;-82
2022/08/16 09:30:42;;;;;;;13.77;10.82;;;;;;;25.25;53.93;100755.34;5073313;28;20523;-80
2022/08/16 09:33:08;;;;;;;13.98;11.63;;;;;;;25.33;52.09;100776.34;5072841;28;20082;-80
2022/08/16 09:35:36;;;;;;;14.18;11.88;;;;;;;25.12;52.72;100737.59;5073724;28;20025;-78
2022/08/16 09:38:02;;;;;;;15.82;11.35;;;;;;;25.54;51.74;100774.63;5073267;28;20075;-77
2022/08/16 09:40:27;;;;;;;15.30;11.65;;;;;;;25.73;51.11;100776.59;5055135;28;20464;-79
2022/08/16 09:42:54;;;;;;;13.88;11.30;;;;;;;25.87;50.75;100777.47;5073466;28;20020;-80
2022/08/16 09:45:20;;;;;;;14.27;10.88;;;;;;;25.94;50.03;100783.59;5072731;28;20055;-79
2022/08/16 09:47:46;;;;;;;14.10;10.77;;;;;;;26.07;49.90;100785.47;5073185;28;20024;-77
2022/08/16 09:50:13;;;;;;;13.45;10.35;;;;;;;26.15;49.05;100782.63;5073245;28;20020;-77
2022/08/16 09:52:39;;;;;;;15.63;10.05;;;;;;;26.21;47.88;100779.19;5073007;28;20027;-81
2022/08/16 09:55:07;;;;;;;16.55;10.27;;;;;;;26.24;48.55;100773.50;5073005;28;20025;-77
2022/08/16 09:57:32;;;;;;;14.63;11.05;;;;;;;26.28;48.58;100780.84;5072651;28;20021;-78
2022/08/16 10:00:00;;;;;;;11.48;9.82;;;;;;;26.20;48.80;100774.94;5072533;28;20028;-75
2022/08/16 10:02:26;;;;;;;16.83;10.25;;;;;;;26.19;49.22;100782.06;5072853;28;20063;-76
2022/08/16 10:04:51;;;;;;;12.48;10.85;;;;;;;26.06;48.13;100762.69;5072701;28;20080;-76
2022/08/16 10:07:17;;;;;;;13.30;9.65;;;;;;;26.09;49.84;100781.63;5072720;28;20151;-77
2022/08/16 10:09:45;;;;;;;13.73;10.65;;;;;;;26.10;48.44;100782.44;5072619;28;20024;-75
2022/08/16 10:14:54;;;;;;;14.32;10.32;;;;;;;26.20;47.96;100761.69;5072957;28;20043;-77
2022/08/16 10:17:20;;;;;;;12.00;9.40;;;;;;;26.43;48.12;100758.69;5071790;28;20017;-78
2022/08/16 10:19:46;;;;;;;14.73;9.65;;;;;;;26.72;47.65;100778.69;5054709;28;20024;-79
2022/08/16 10:22:12;;;;;;;13.65;9.82;;;;;;;26.50;46.04;100741.81;5072546;28;20447;-76
2022/08/16 10:24:39;;;;;;;12.18;9.75;;;;;;;26.74;46.36;100777.44;5072362;28;20129;-78
2022/08/16 10:27:05;;;;;;;17.05;9.70;;;;;;;26.75;46.86;100765.88;5072508;28;20017;-75
2022/08/16 10:29:30;;;;;;;13.18;9.13;;;;;;;26.92;46.10;100768.06;5072297;28;20031;-78
2022/08/16 10:31:55;;;;;;;12.07;8.77;;;;;;;26.98;46.03;100776.03;5072527;28;20025;-75
2022/08/16 10:34:21;;;;;;;11.20;9.07;;;;;;;26.97;45.81;100776.25;5072409;28;20107;-78
2022/08/16 10:36:47;;;;;;;12.45;8.50;;;;;;;26.93;45.10;100773.16;5072393;28;20388;-75
2022/08/16 10:39:12;;;;;;;11.55;8.55;;;;;;;26.92;43.69;100768.06;5072285;28;20028;-76
2022/08/16 10:41:37;;;;;;;9.85;8.15;;;;;;;26.84;43.29;100759.34;5072464;28;20027;-75
2022/08/16 10:44:03;;;;;;;12.63;8.52;;;;;;;26.99;45.00;100785.59;5072115;28;20024;-75
2022/08/16 10:46:29;;;;;;;12.68;8.68;;;;;;;27.08;43.95;100792.38;5072431;28;20036;-77
2022/08/16 10:48:55;;;;;;;15.15;8.63;;;;;;;27.21;43.48;100790.72;5072585;28;20016;-76
2022/08/16 10:51:21;;;;;;;16.90;8.60;;;;;;;27.30;42.94;100784.16;5072358;28;20029;-76
2022/08/16 10:53:46;;;;;;;10.60;8.68;;;;;;;27.27;42.93;100764.19;5071975;28;20028;-74
2022/08/16 10:56:12;;;;;;;9.30;8.15;;;;;;;27.67;43.08;100786.13;5071674;28;20024;-73
2022/08/16 10:58:39;;;;;;;13.30;8.95;;;;;;;27.82;41.91;100796.47;5071767;28;20020;-74
2022/08/16 11:01:07;;;;;;;12.00;9.07;;;;;;;27.95;41.92;100799.09;5071782;28;20050;-71
2022/08/16 11:03:33;;;;;;;11.48;8.23;;;;;;;28.16;42.22;100789.19;5071905;28;20044;-74
2022/08/16 11:05:58;;;;;;;12.18;8.25;;;;;;;28.19;40.79;100784.25;5072081;28;20464;-74
2022/08/16 11:08:24;;;;;;;11.68;7.93;;;;;;;28.32;39.92;100798.50;5071535;28;20027;-74
2022/08/16 11:10:49;;;;;;;11.35;8.10;;;;;;;28.27;40.61;100786.66;5071684;28;20035;-74